| time (UTC) | temp C | wind direction | speed KPH | gust KPH | rain 1hr cm | rain 24hr cm | rain mn cm | humidity % | barometer mb |
| 20260906172601 | 18 | 213 | 0.0 | 3.2 | 0.25 | 1.73 | 1.73 | 92 | 1016.4 |
| 20260906172100 | 17 | 212 | 0.0 | 3.2 | 0.28 | 1.73 | 1.73 | 92 | 1016.5 |
| 20260906171830 | 17 | 263 | 0.0 | 3.2 | 0.28 | 1.70 | 1.70 | 92 | 1016.4 |
| 20260906171054 | 17 | 248 | 0.0 | 3.2 | 0.30 | 1.70 | 1.70 | 92 | 1016.3 |
| 20260906170554 | 17 | 140 | 0.0 | 3.2 | 0.28 | 1.68 | 1.68 | 92 | 1016.2 |
| 20260906170337 | 17 | 211 | 0.0 | 1.6 | 0.30 | 1.65 | 1.65 | 92 | 1016.1 |
| 20260906165554 | 17 | 207 | 0.0 | 1.6 | 0.30 | 1.63 | 1.63 | 92 | 1015.9 |
| 20260906165056 | 17 | 207 | 0.0 | 1.6 | 0.28 | 1.57 | 1.57 | 92 | 1015.7 |
| 20260906164553 | 17 | 207 | 0.0 | 1.6 | 0.25 | 1.55 | 1.55 | 92 | 1015.5 |
| 20260906164051 | 17 | 207 | 0.0 | 1.6 | 0.23 | 1.52 | 1.52 | 91 | 1015.5 |
| 20260906163821 | 17 | 207 | 0.0 | 1.6 | 0.23 | 1.52 | 1.52 | 91 | 1015.6 |
| 20260906163319 | 17 | 207 | 0.0 | 3.2 | 0.20 | 1.50 | 1.50 | 91 | 1015.7 |
| 20260906162547 | 17 | 207 | 0.0 | 3.2 | 0.18 | 1.47 | 1.47 | 91 | 1015.8 |
| 20260906162046 | 17 | 242 | 0.0 | 1.6 | 0.18 | 1.45 | 1.45 | 91 | 1015.8 |
| 20260906161544 | 17 | 242 | 0.0 | 1.6 | 0.15 | 1.42 | 1.42 | 91 | 1015.7 |
| 20260906161047 | 17 | 242 | 0.0 | 3.2 | 0.13 | 1.40 | 1.40 | 91 | 1015.5 |
| 20260906160544 | 16 | 242 | 0.0 | 3.2 | 0.13 | 1.40 | 1.40 | 91 | 1015.3 |
| 20260906160056 | 16 | 226 | 0.0 | 1.6 | 0.08 | 1.35 | 1.35 | 91 | 1015.2 |
| 20260906155817 | 16 | 226 | 0.0 | 1.6 | 0.05 | 1.32 | 1.32 | 90 | 1015.0 |
| 20260906155045 | 16 | 226 | 0.0 | 4.8 | 0.03 | 1.30 | 1.30 | 91 | 1015.0 |
| 20260906154545 | 16 | 231 | 0.0 | 4.8 | 0.05 | 1.30 | 1.30 | 90 | 1014.9 |
| 20260906154045 | 16 | 245 | 1.6 | 3.2 | 0.05 | 1.30 | 1.30 | 90 | 1014.9 |
| 20260906153544 | 16 | 221 | 1.6 | 3.2 | 0.05 | 1.30 | 1.30 | 90 | 1014.9 |
| 20260906153044 | 16 | 214 | 0.0 | 3.2 | 0.05 | 1.30 | 1.30 | 90 | 1014.7 |
| 20260906152545 | 16 | 255 | 0.0 | 3.2 | 0.05 | 1.30 | 1.30 | 90 | 1014.7 |
| 20260906152044 | 16 | 254 | 0.0 | 3.2 | 0.03 | 1.27 | 1.27 | 90 | 1014.6 |
| 20260906151541 | 16 | 262 | 0.0 | 3.2 | 0.03 | 1.27 | 1.27 | 89 | 1014.5 |
| 20260906151041 | 16 | 205 | 0.0 | 3.2 | 0.03 | 1.27 | 1.27 | 90 | 1014.5 |
| 20260906150813 | 16 | 225 | 0.0 | 3.2 | 0.05 | 1.27 | 1.27 | 89 | 1014.4 |
| 20260906150050 | 16 | 256 | 0.0 | 3.2 | 0.08 | 1.27 | 1.27 | 89 | 1014.4 |
| 20260906145539 | 16 | 303 | 0.0 | 1.6 | 0.10 | 1.27 | 1.27 | 88 | 1014.5 |
| 20260906145037 | 16 | 311 | 0.0 | 1.6 | 0.15 | 1.27 | 1.27 | 88 | 1014.6 |
| 20260906144810 | 16 | 33 | 0.0 | 0.0 | 0.41 | 1.24 | 1.24 | 88 | 1014.5 |
| 20260906144535 | 16 | 33 | 0.0 | 0.0 | 0.15 | 1.24 | 1.24 | 88 | 1014.6 |
| 20260906143535 | 16 | 33 | 0.0 | 0.0 | 0.56 | 1.24 | 1.24 | 88 | 1014.5 |
| 20260906143031 | 16 | 33 | 0.0 | 3.2 | 0.76 | 1.24 | 1.24 | 87 | 1014.6 |
| 20260906142534 | 16 | 33 | 0.0 | 3.2 | 0.86 | 1.24 | 1.24 | 86 | 1014.6 |
| 20260906142034 | 16 | 5 | 0.0 | 0.0 | 1.14 | 1.24 | 1.24 | 86 | 1014.5 |
| 20260906141527 | 16 | 5 | 0.0 | 3.2 | 1.22 | 1.24 | 1.24 | 85 | 1014.6 |
| 20260906141020 | 16 | 5 | 0.0 | 3.2 | 1.22 | 1.24 | 1.24 | 84 | 1014.6 |
| 20260906140514 | 16 | 10 | 1.6 | 4.8 | 1.19 | 1.22 | 1.24 | 83 | 1014.6 |
| 20260906140004 | 16 | 31 | 1.6 | 6.4 | 1.19 | 1.19 | 1.19 | 82 | 1014.5 |
| 20260906135458 | 17 | 40 | 0.0 | 6.4 | 1.17 | 1.17 | 1.17 | 81 | 1014.8 |
| 20260906134952 | 17 | 355 | 0.0 | 3.2 | 1.12 | 1.12 | 1.12 | 80 | 1015.0 |
| 20260906134442 | 17 | 17 | 0.0 | 3.2 | 1.07 | 1.07 | 1.09 | 79 | 1014.9 |
| 20260906133937 | 18 | 5 | 0.0 | 3.2 | 0.79 | 0.79 | 0.81 | 79 | 1014.8 |
| 20260906133431 | 18 | 197 | 0.0 | 1.6 | 0.64 | 0.64 | 0.64 | 78 | 1014.8 |
| 20260906132928 | 18 | 177 | 0.0 | 6.4 | 0.43 | 0.43 | 0.46 | 78 | 1014.7 |
| 20260906132427 | 18 | 177 | 1.6 | 6.4 | 0.36 | 0.36 | 0.36 | 76 | 1014.6 |
| 20260906131930 | 19 | 163 | 1.6 | 4.8 | 0.05 | 0.05 | 0.10 | 73 | 1014.7 |
| 20260906131441 | 20 | 240 | 0.0 | 3.2 | 0.03 | 0.03 | 0.03 | 71 | 1014.3 |
| 20260906130938 | 20 | 207 | 0.0 | 4.8 | 0.03 | 0.03 | 0.03 | 69 | 1013.8 |
| 20260906130426 | 20 | 207 | 1.6 | 8.0 | 0.03 | 0.03 | 0.03 | 66 | 1013.8 |
| 20260906125923 | 20 | 121 | 3.2 | 11.3 | 0.00 | 0.00 | 0.00 | 63 | 1013.7 |
| 20260906125424 | 21 | 250 | 3.2 | 12.9 | 0.00 | 0.00 | 0.00 | 56 | 1013.8 |
| 20260906125154 | 21 | 263 | 1.6 | 12.9 | 0.00 | 0.00 | 0.00 | 51 | 1013.9 |
| 20260906124423 | 21 | 275 | 1.6 | 4.8 | 0.00 | 0.00 | 0.00 | 52 | 1014.1 |
| 20260906124154 | 21 | 222 | 0.0 | 3.2 | 0.00 | 0.00 | 0.00 | 53 | 1013.6 |
| 20260906123420 | 21 | 236 | 0.0 | 1.6 | 0.00 | 0.00 | 0.00 | 54 | 1013.1 |
| 20260906122920 | 21 | 236 | 0.0 | 1.6 | 0.00 | 0.00 | 0.00 | 54 | 1012.9 |
| 20260906122420 | 21 | 236 | 0.0 | 0.0 | 0.00 | 0.00 | 0.00 | 54 | 1012.8 |
| 20260906121920 | 21 | 236 | 0.0 | 0.0 | 0.00 | 0.00 | 0.00 | 53 | 1012.8 |
| 20260906121657 | 21 | 236 | 0.0 | 0.0 | 0.00 | 0.00 | 0.00 | 53 | 1012.7 |
| 20260906120918 | 21 | 236 | 0.0 | 1.6 | 0.00 | 0.00 | 0.00 | 54 | 1012.6 |
| 20260906120651 | 21 | 236 | 0.0 | 1.6 | 0.00 | 0.00 | 0.00 | 54 | 1012.5 |
| 20260906115919 | 21 | 236 | 0.0 | 1.6 | 0.00 | 0.00 | 0.00 | 54 | 1012.5 |
| 20260906115420 | 21 | 236 | 0.0 | 1.6 | 0.00 | 0.00 | 0.00 | 54 | 1012.6 |
| 20260906114920 | 21 | 236 | 0.0 | 1.6 | 0.00 | 0.00 | 0.00 | 54 | 1012.6 |
| 20260906114417 | 21 | 236 | 0.0 | 1.6 | 0.00 | 0.00 | 0.00 | 54 | 1012.6 |
| 20260906113912 | 21 | 236 | 0.0 | 0.0 | 0.00 | 0.00 | 0.00 | 54 | 1012.5 |
| 20260906113405 | 21 | 236 | 0.0 | 0.0 | 0.00 | 0.00 | 0.00 | 54 | 1012.5 |
| 20260906112905 | 21 | 236 | 0.0 | 1.6 | 0.00 | 0.00 | 0.00 | 54 | 1012.7 |
| 20260906112635 | 21 | 236 | 0.0 | 1.6 | 0.00 | 0.00 | 0.00 | 54 | 1012.8 |
| 20260906111900 | 21 | 236 | 0.0 | 1.6 | 0.00 | 0.00 | 0.00 | 56 | 1012.9 |
| 20260906111632 | 21 | 236 | 0.0 | 1.6 | 0.00 | 0.00 | 0.00 | 57 | 1012.8 |
| 20260906110901 | 21 | 236 | 0.0 | 0.0 | 0.00 | 0.00 | 0.00 | 57 | 1012.6 |
| 20260906110359 | 21 | 236 | 0.0 | 0.0 | 0.00 | 0.00 | 0.00 | 57 | 1012.6 |
| 20260906105856 | 21 | 236 | 0.0 | 0.0 | 0.00 | 0.00 | 0.00 | 56 | 1012.6 |
| 20260906105624 | 21 | 236 | 0.0 | 0.0 | 0.00 | 0.00 | 0.00 | 55 | 1012.6 |
| 20260906104852 | 21 | 236 | 0.0 | 0.0 | 0.00 | 0.00 | 0.00 | 56 | 1012.7 |
| 20260906104620 | 21 | 236 | 0.0 | 0.0 | 0.00 | 0.00 | 0.00 | 55 | 1012.7 |
| 20260906103847 | 21 | 236 | 0.0 | 1.6 | 0.00 | 0.00 | 0.00 | 56 | 1012.7 |
| 20260906103347 | 21 | 236 | 0.0 | 1.6 | 0.00 | 0.00 | 0.00 | 56 | 1012.8 |
| 20260906103117 | 21 | 236 | 0.0 | 0.0 | 0.00 | 0.00 | 0.00 | 57 | 1012.7 |
| 20260906102346 | 21 | 236 | 0.0 | 0.0 | 0.00 | 0.00 | 0.00 | 56 | 1012.6 |
| 20260906101846 | 20 | 236 | 0.0 | 0.0 | 0.00 | 0.00 | 0.00 | 56 | 1012.6 |
| 20260906101345 | 20 | 236 | 0.0 | 0.0 | 0.00 | 0.00 | 0.00 | 55 | 1012.7 |
| 20260906100839 | 20 | 236 | 0.0 | 0.0 | 0.00 | 0.00 | 0.00 | 56 | 1012.7 |
| 20260906100333 | 20 | 236 | 0.0 | 0.0 | 0.00 | 0.00 | 0.00 | 55 | 1012.7 |
| 20260906100058 | 20 | 236 | 0.0 | 0.0 | 0.00 | 0.00 | 0.00 | 56 | 1012.8 |
| 20260906095327 | 20 | 236 | 0.0 | 0.0 | 0.00 | 0.00 | 0.00 | 55 | 1012.7 |
| 20260906094826 | 20 | 236 | 0.0 | 0.0 | 0.00 | 0.00 | 0.00 | 55 | 1012.8 |
| 20260906094328 | 20 | 236 | 0.0 | 1.6 | 0.00 | 0.00 | 0.00 | 56 | 1012.7 |
| 20260906093828 | 20 | 236 | 0.0 | 1.6 | 0.00 | 0.00 | 0.00 | 56 | 1012.8 |
| 20260906093326 | 20 | 236 | 0.0 | 1.6 | 0.00 | 0.00 | 0.00 | 57 | 1012.7 |
| 20260906093056 | 20 | 236 | 0.0 | 0.0 | 0.00 | 0.00 | 0.00 | 58 | 1012.8 |
| 20260906092558 | 20 | 236 | 0.0 | 0.0 | 0.00 | 0.00 | 0.00 | 57 | 1012.7 |
| 20260906091826 | 20 | 236 | 0.0 | 0.0 | 0.00 | 0.00 | 0.00 | 57 | 1012.7 |
| 20260906091326 | 20 | 236 | 0.0 | 1.6 | 0.00 | 0.00 | 0.00 | 57 | 1012.7 |
| 20260906090824 | 20 | 236 | 0.0 | 1.6 | 0.00 | 0.00 | 0.00 | 57 | 1012.8 |
| 20260906090325 | 20 | 236 | 0.0 | 0.0 | 0.00 | 0.00 | 0.00 | 56 | 1012.9 |
| 20260906085825 | 20 | 236 | 0.0 | 1.6 | 0.00 | 0.00 | 0.00 | 57 | 1012.9 |
| 20260906085323 | 20 | 236 | 0.0 | 1.6 | 0.00 | 0.00 | 0.00 | 57 | 1012.9 |
| 20260906085052 | 20 | 236 | 0.0 | 0.0 | 0.00 | 0.00 | 0.00 | 57 | 1013.0 |
| 20260906084321 | 20 | 236 | 0.0 | 1.6 | 0.00 | 0.00 | 0.00 | 58 | 1013.0 |
| 20260906083821 | 20 | 236 | 0.0 | 1.6 | 0.00 | 0.00 | 0.00 | 58 | 1013.0 |
| 20260906083320 | 20 | 236 | 0.0 | 1.6 | 0.00 | 0.00 | 0.00 | 59 | 1013.0 |
| 20260906082823 | 20 | 236 | 0.0 | 1.6 | 0.00 | 0.00 | 0.00 | 58 | 1012.9 |
| 20260906082321 | 20 | 236 | 0.0 | 0.0 | 0.00 | 0.00 | 0.00 | 58 | 1013.0 |
| 20260906081822 | 20 | 236 | 0.0 | 0.0 | 0.00 | 0.00 | 0.00 | 58 | 1013.1 |
| 20260906081323 | 20 | 236 | 0.0 | 0.0 | 0.00 | 0.00 | 0.00 | 58 | 1013.1 |
| 20260906080821 | 20 | 236 | 0.0 | 0.0 | 0.00 | 0.00 | 0.00 | 58 | 1013.1 |
| 20260906080314 | 20 | 236 | 0.0 | 0.0 | 0.00 | 0.00 | 0.00 | 58 | 1013.1 |
| 20260906075809 | 20 | 236 | 0.0 | 1.6 | 0.00 | 0.00 | 0.00 | 58 | 1013.2 |
| 20260906075258 | 20 | 236 | 0.0 | 1.6 | 0.00 | 0.00 | 0.00 | 58 | 1013.1 |
| 20260906074752 | 20 | 236 | 0.0 | 1.6 | 0.00 | 0.00 | 0.00 | 58 | 1013.2 |
| 20260906074246 | 20 | 236 | 0.0 | 0.0 | 0.00 | 0.00 | 0.00 | 58 | 1013.1 |
| 20260906073740 | 20 | 236 | 0.0 | 0.0 | 0.00 | 0.00 | 0.00 | 58 | 1013.1 |
| 20260906073505 | 20 | 236 | 0.0 | 1.6 | 0.00 | 0.00 | 0.00 | 58 | 1013.0 |
| 20260906072727 | 21 | 236 | 0.0 | 1.6 | 0.00 | 0.00 | 0.00 | 58 | 1013.1 |
| 20260906072218 | 21 | 236 | 0.0 | 1.6 | 0.00 | 0.00 | 0.00 | 57 | 1013.1 |
| 20260906071712 | 21 | 236 | 0.0 | 0.0 | 0.00 | 0.00 | 0.00 | 58 | 1013.0 |
| 20260906071205 | 21 | 236 | 0.0 | 1.6 | 0.00 | 0.00 | 0.00 | 57 | 1013.0 |
| 20260906070656 | 21 | 236 | 0.0 | 1.6 | 0.00 | 0.00 | 0.00 | 57 | 1013.0 |
| 20260906070150 | 21 | 236 | 0.0 | 1.6 | 0.00 | 0.00 | 0.00 | 57 | 1013.1 |
| 20260906065645 | 21 | 236 | 0.0 | 1.6 | 0.00 | 0.00 | 0.00 | 56 | 1013.1 |
| 20260906065134 | 21 | 236 | 0.0 | 1.6 | 0.00 | 0.00 | 0.00 | 56 | 1013.1 |
| 20260906064627 | 21 | 236 | 0.0 | 1.6 | 0.00 | 0.00 | 0.00 | 56 | 1013.1 |
| 20260906064122 | 21 | 236 | 0.0 | 1.6 | 0.00 | 0.00 | 0.00 | 56 | 1013.1 |
| 20260906063618 | 21 | 236 | 0.0 | 1.6 | 0.00 | 0.00 | 0.00 | 56 | 1013.1 |
| 20260906063118 | 21 | 236 | 0.0 | 1.6 | 0.00 | 0.00 | 0.00 | 56 | 1013.1 |
| 20260906062615 | 21 | 236 | 0.0 | 1.6 | 0.00 | 0.00 | 0.00 | 56 | 1013.1 |
| 20260906062347 | 21 | 236 | 0.0 | 1.6 | 0.00 | 0.00 | 0.00 | 56 | 1013.1 |
| 20260906061615 | 21 | 236 | 0.0 | 1.6 | 0.00 | 0.00 | 0.00 | 56 | 1013.1 |
| 20260906061116 | 21 | 236 | 0.0 | 3.2 | 0.00 | 0.00 | 0.00 | 56 | 1013.1 |
| 20260906060617 | 21 | 236 | 0.0 | 3.2 | 0.00 | 0.00 | 0.00 | 56 | 1013.2 |
| 20260906060353 | 21 | 234 | 0.0 | 3.2 | 0.00 | 0.00 | 0.00 | 56 | 1013.1 |
| 20260906055617 | 21 | 232 | 0.0 | 3.2 | 0.00 | 0.00 | 0.00 | 57 | 1013.1 |
| 20260906055113 | 21 | 232 | 0.0 | 3.2 | 0.00 | 0.00 | 0.00 | 56 | 1013.1 |
| 20260906054614 | 22 | 242 | 0.0 | 3.2 | 0.00 | 0.00 | 0.00 | 57 | 1013.1 |
| 20260906054113 | 22 | 210 | 1.6 | 3.2 | 0.00 | 0.00 | 0.00 | 57 | 1013.1 |
| 20260906053845 | 22 | 236 | 1.6 | 3.2 | 0.00 | 0.00 | 0.00 | 57 | 1013.2 |
| 20260906053113 | 22 | 241 | 1.6 | 4.8 | 0.00 | 0.00 | 0.00 | 57 | 1013.2 |
| 20260906052613 | 22 | 234 | 1.6 | 4.8 | 0.00 | 0.00 | 0.00 | 57 | 1013.1 |
| 20260906052117 | 22 | 218 | 1.6 | 4.8 | 0.00 | 0.00 | 0.00 | 56 | 1013.1 |
| 20260906051614 | 22 | 204 | 1.6 | 4.8 | 0.00 | 0.00 | 0.00 | 56 | 1013.2 |
| 20260906051112 | 22 | 219 | 0.0 | 4.8 | 0.00 | 0.00 | 0.00 | 56 | 1013.4 |
| 20260906050614 | 22 | 216 | 0.0 | 3.2 | 0.00 | 0.00 | 0.00 | 55 | 1013.4 |
| 20260906050121 | 22 | 220 | 0.0 | 1.6 | 0.00 | 0.00 | 0.00 | 55 | 1013.4 |
| 20260906045610 | 22 | 220 | 0.0 | 3.2 | 0.00 | 0.00 | 0.00 | 55 | 1013.5 |
| 20260906045108 | 22 | 223 | 0.0 | 3.2 | 0.00 | 0.00 | 0.00 | 55 | 1013.4 |
| 20260906044608 | 22 | 240 | 0.0 | 3.2 | 0.00 | 0.00 | 0.00 | 55 | 1013.5 |
| 20260906044107 | 23 | 253 | 1.6 | 6.4 | 0.00 | 0.00 | 0.00 | 54 | 1013.5 |
| 20260906043610 | 23 | 227 | 3.2 | 6.4 | 0.00 | 0.00 | 0.00 | 54 | 1013.5 |
| 20260906043108 | 23 | 196 | 1.6 | 6.4 | 0.00 | 0.00 | 0.00 | 53 | 1013.5 |
| 20260906042835 | 23 | 232 | 1.6 | 4.8 | 0.00 | 0.00 | 0.00 | 52 | 1013.5 |
| 20260906042105 | 23 | 225 | 1.6 | 4.8 | 0.00 | 0.00 | 0.00 | 50 | 1013.6 |
| 20260906041605 | 23 | 222 | 1.6 | 3.2 | 0.00 | 0.00 | 0.00 | 48 | 1013.5 |
| 20260906041118 | 23 | 251 | 1.6 | 4.8 | 0.00 | 0.00 | 0.00 | 47 | 1013.4 |
| 20260906040616 | 23 | 211 | 1.6 | 4.8 | 0.00 | 0.00 | 0.00 | 45 | 1013.2 |
| 20260906040344 | 23 | 229 | 0.0 | 3.2 | 0.00 | 0.00 | 0.00 | 45 | 1013.2 |
| 20260906035831 | 24 | 207 | 0.0 | 4.8 | 0.00 | 0.00 | 0.00 | 45 | 1013.1 |
| 20260906035103 | 24 | 226 | 1.6 | 4.8 | 0.00 | 0.00 | 0.00 | 44 | 1013.1 |
| 20260906034558 | 24 | 226 | 1.6 | 4.8 | 0.00 | 0.00 | 0.00 | 44 | 1013.1 |
| 20260906034102 | 24 | 235 | 1.6 | 6.4 | 0.00 | 0.00 | 0.00 | 43 | 1012.9 |
| 20260906033559 | 25 | 203 | 0.0 | 6.4 | 0.00 | 0.00 | 0.00 | 42 | 1012.9 |
| 20260906033053 | 25 | 238 | 1.6 | 4.8 | 0.00 | 0.00 | 0.00 | 41 | 1012.9 |
| 20260906032547 | 25 | 236 | 1.6 | 4.8 | 0.00 | 0.00 | 0.00 | 41 | 1012.8 |
| 20260906032043 | 25 | 229 | 0.0 | 3.2 | 0.00 | 0.00 | 0.00 | 40 | 1012.8 |
| 20260906031540 | 25 | 229 | 0.0 | 3.2 | 0.00 | 0.00 | 0.00 | 39 | 1012.7 |
| 20260906031042 | 26 | 240 | 0.0 | 3.2 | 0.00 | 0.00 | 0.00 | 39 | 1012.5 |
| 20260906030540 | 26 | 250 | 0.0 | 1.6 | 0.00 | 0.00 | 0.00 | 38 | 1012.5 |
| 20260906030058 | 26 | 250 | 0.0 | 1.6 | 0.00 | 0.00 | 0.00 | 38 | 1012.5 |
| 20260906025539 | 26 | 250 | 0.0 | 0.0 | 0.00 | 0.00 | 0.00 | 36 | 1012.5 |
| 20260906025310 | 27 | 250 | 0.0 | 0.0 | 0.00 | 0.00 | 0.00 | 36 | 1012.4 |
| 20260906024536 | 27 | 250 | 0.0 | 1.6 | 0.00 | 0.00 | 0.00 | 36 | 1012.4 |
| 20260906024033 | 27 | 250 | 0.0 | 3.2 | 0.00 | 0.00 | 0.00 | 36 | 1012.4 |
| 20260906023532 | 27 | 250 | 0.0 | 3.2 | 0.00 | 0.00 | 0.00 | 36 | 1012.4 |
| 20260906023304 | 27 | 249 | 0.0 | 3.2 | 0.00 | 0.00 | 0.00 | 35 | 1012.4 |
| 20260906022532 | 27 | 252 | 0.0 | 4.8 | 0.00 | 0.00 | 0.00 | 34 | 1012.4 |
| 20260906022033 | 28 | 257 | 0.0 | 4.8 | 0.00 | 0.00 | 0.00 | 33 | 1012.4 |
| 20260906021803 | 28 | 268 | 1.6 | 11.3 | 0.00 | 0.00 | 0.00 | 32 | 1012.4 |
| 20260906021032 | 28 | 244 | 1.6 | 11.3 | 0.00 | 0.00 | 0.00 | 30 | 1012.4 |
| 20260906020534 | 29 | 254 | 0.0 | 4.8 | 0.00 | 0.00 | 0.00 | 24 | 1012.4 |
| 20260906020033 | 30 | 265 | 1.6 | 4.8 | 0.00 | 0.00 | 0.00 | 23 | 1012.3 |
| 20260906015533 | 30 | 264 | 1.6 | 4.8 | 0.00 | 0.00 | 0.00 | 23 | 1012.3 |
| 20260906015033 | 30 | 252 | 1.6 | 4.8 | 0.00 | 0.00 | 0.00 | 22 | 1012.2 |
| 20260906014805 | 30 | 243 | 1.6 | 4.8 | 0.00 | 0.00 | 0.00 | 22 | 1012.2 |
| 20260906014033 | 30 | 181 | 1.6 | 6.4 | 0.00 | 0.00 | 0.00 | 21 | 1012.1 |
| 20260906013534 | 31 | 228 | 1.6 | 6.4 | 0.00 | 0.00 | 0.00 | 21 | 1012.1 |
| 20260906013024 | 31 | 219 | 1.6 | 4.8 | 0.00 | 0.00 | 0.00 | 21 | 1012.1 |
| 20260906012748 | 31 | 244 | 1.6 | 4.8 | 0.00 | 0.00 | 0.00 | 21 | 1012.1 |
| 20260906012011 | 31 | 148 | 1.6 | 6.4 | 0.00 | 0.00 | 0.00 | 20 | 1012.1 |
| 20260906011502 | 31 | 168 | 3.2 | 9.7 | 0.00 | 0.00 | 0.00 | 20 | 1012.1 |
| 20260906011226 | 32 | 271 | 3.2 | 9.7 | 0.00 | 0.00 | 0.00 | 19 | 1012.1 |
| 20260906010449 | 32 | 167 | 1.6 | 6.4 | 0.00 | 0.00 | 0.00 | 18 | 1012.1 |
| 20260906010210 | 32 | 238 | 1.6 | 6.4 | 0.00 | 0.00 | 0.00 | 18 | 1012.1 |
| 20260906005433 | 32 | 165 | 1.6 | 9.7 | 0.00 | 0.00 | 0.00 | 18 | 1012.1 |
| 20260906005201 | 32 | 142 | 1.6 | 9.7 | 0.00 | 0.00 | 0.00 | 19 | 1012.2 |
| 20260906004650 | 32 | 248 | 1.6 | 6.4 | 0.00 | 0.00 | 0.00 | 19 | 1012.1 |
| 20260906003912 | 32 | 243 | 1.6 | 12.9 | 0.00 | 0.00 | 0.00 | 19 | 1012.0 |
| 20260906003636 | 32 | 220 | 1.6 | 12.9 | 0.00 | 0.00 | 0.00 | 19 | 1011.9 |
| 20260906002856 | 32 | 259 | 3.2 | 12.9 | 0.00 | 0.00 | 0.00 | 19 | 1012.0 |
| 20260906002349 | 32 | 142 | 3.2 | 12.9 | 0.00 | 0.00 | 0.00 | 19 | 1012.0 |
| 20260906001844 | 32 | 144 | 3.2 | 9.7 | 0.00 | 0.00 | 0.00 | 18 | 1012.0 |
| 20260906001334 | 32 | 251 | 3.2 | 9.7 | 0.00 | 0.00 | 0.00 | 18 | 1012.0 |
| 20260906000828 | 32 | 59 | 3.2 | 9.7 | 0.00 | 0.00 | 0.00 | 18 | 1012.0 |
| 20260906000321 | 32 | 183 | 3.2 | 11.3 | 0.00 | 0.00 | 0.00 | 18 | 1012.0 |
| 20260905235812 | 32 | 209 | 3.2 | 11.3 | 0.00 | 0.00 | 0.00 | 18 | 1012.0 |
| 20260905235307 | 32 | 238 | 3.2 | 11.3 | 0.00 | 0.00 | 0.00 | 18 | 1012.1 |
| 20260905234759 | 32 | 223 | 3.2 | 11.3 | 0.00 | 0.00 | 0.00 | 18 | 1012.2 |
| 20260905234250 | 32 | 153 | 3.2 | 14.5 | 0.00 | 0.00 | 0.00 | 19 | 1012.2 |
| 20260905233745 | 32 | 11 | 4.8 | 14.5 | 0.00 | 0.00 | 0.00 | 19 | 1012.1 |
| 20260905233508 | 32 | 143 | 4.8 | 14.5 | 0.00 | 0.00 | 0.00 | 19 | 1012.1 |
| 20260905232728 | 32 | 262 | 4.8 | 14.5 | 0.00 | 0.00 | 0.00 | 19 | 1012.1 |
| 20260905232222 | 32 | 142 | 4.8 | 11.3 | 0.00 | 0.00 | 0.00 | 19 | 1012.1 |
| 20260905231955 | 32 | 105 | 3.2 | 12.9 | 0.00 | 0.00 | 0.00 | 20 | 1012.2 |
| 20260905231217 | 32 | 189 | 3.2 | 12.9 | 0.00 | 0.00 | 0.00 | 19 | 1012.1 |
| 20260905230717 | 33 | 207 | 3.2 | 14.5 | 0.00 | 0.00 | 0.00 | 19 | 1012.2 |
| 20260905230220 | 33 | 97 | 3.2 | 14.5 | 0.00 | 0.00 | 0.00 | 20 | 1012.2 |
| 20260905225717 | 33 | 177 | 3.2 | 11.3 | 0.00 | 0.00 | 0.00 | 20 | 1012.2 |
| 20260905225219 | 33 | 283 | 4.8 | 14.5 | 0.00 | 0.00 | 0.00 | 20 | 1012.3 |
| 20260905224717 | 33 | 176 | 4.8 | 14.5 | 0.00 | 0.00 | 0.00 | 19 | 1012.3 |
| 20260905224449 | 33 | 161 | 3.2 | 14.5 | 0.00 | 0.00 | 0.00 | 19 | 1012.3 |
| 20260905223717 | 33 | 177 | 4.8 | 14.5 | 0.00 | 0.00 | 0.00 | 19 | 1012.3 |
| 20260905223450 | 32 | 24 | 4.8 | 14.5 | 0.00 | 0.00 | 0.00 | 18 | 1012.4 |
| 20260905222719 | 33 | 220 | 4.8 | 11.3 | 0.00 | 0.00 | 0.00 | 18 | 1012.4 |
| 20260905222213 | 33 | 192 | 4.8 | 11.3 | 0.00 | 0.00 | 0.00 | 19 | 1012.4 |
| 20260905221713 | 33 | 244 | 3.2 | 11.3 | 0.00 | 0.00 | 0.00 | 18 | 1012.4 |
| 20260905221214 | 33 | 138 | 3.2 | 9.7 | 0.00 | 0.00 | 0.00 | 18 | 1012.5 |
| 20260905220945 | 33 | 189 | 3.2 | 11.3 | 0.00 | 0.00 | 0.00 | 19 | 1012.5 |
| 20260905220214 | 33 | 158 | 4.8 | 11.3 | 0.00 | 0.00 | 0.00 | 19 | 1012.6 |
| 20260905215712 | 33 | 288 | 4.8 | 11.3 | 0.00 | 0.00 | 0.00 | 19 | 1012.7 |
| 20260905215213 | 33 | 258 | 4.8 | 16.1 | 0.00 | 0.00 | 0.00 | 19 | 1012.7 |
| 20260905214713 | 33 | 270 | 3.2 | 16.1 | 0.00 | 0.00 | 0.00 | 19 | 1012.7 |
| 20260905214214 | 33 | 186 | 3.2 | 9.7 | 0.00 | 0.00 | 0.00 | 20 | 1012.8 |
| 20260905213714 | 33 | 261 | 3.2 | 9.7 | 0.00 | 0.00 | 0.00 | 19 | 1012.8 |
| 20260905213214 | 33 | 206 | 3.2 | 9.7 | 0.00 | 0.00 | 0.00 | 20 | 1012.9 |
| 20260905212713 | 33 | 181 | 4.8 | 12.9 | 0.00 | 0.00 | 0.00 | 19 | 1012.9 |
| 20260905212620 | 33 | 176 | 3.2 | 11.3 | 0.00 | 0.00 | 0.00 | 18 | 1012.9 |
| 20260905212507 | 33 | 270 | 3.2 | 12.9 | 0.00 | 0.00 | 0.00 | 19 | 1012.9 |
| 20260905211212 | 33 | 5 | 3.2 | 11.3 | 0.00 | 0.00 | 0.00 | 18 | 1012.9 |
| 20260905210713 | 33 | 234 | 3.2 | 14.5 | 0.00 | 0.00 | 0.00 | 18 | 1012.9 |
| 20260905210214 | 33 | 182 | 3.2 | 14.5 | 0.00 | 0.00 | 0.00 | 19 | 1013.0 |
| 20260905205948 | 33 | 253 | 3.2 | 12.9 | 0.00 | 0.00 | 0.00 | 18 | 1013.1 |
| 20260905205212 | 33 | 254 | 3.2 | 8.0 | 0.00 | 0.00 | 0.00 | 19 | 1013.1 |
| 20260905204710 | 33 | 174 | 3.2 | 9.7 | 0.00 | 0.00 | 0.00 | 19 | 1013.2 |
| 20260905204210 | 33 | 140 | 3.2 | 9.7 | 0.00 | 0.00 | 0.00 | 20 | 1013.2 |
| 20260905203721 | 33 | 202 | 3.2 | 11.3 | 0.00 | 0.00 | 0.00 | 20 | 1013.4 |
| 20260905203710 | 33 | 184 | 3.2 | 11.3 | 0.00 | 0.00 | 0.00 | 21 | 1013.2 |
| 20260905202712 | 33 | 275 | 3.2 | 8.0 | 0.00 | 0.00 | 0.00 | 20 | 1013.5 |
| 20260905202205 | 33 | 211 | 3.2 | 8.0 | 0.00 | 0.00 | 0.00 | 20 | 1013.6 |
| 20260905201658 | 33 | 254 | 3.2 | 9.7 | 0.00 | 0.00 | 0.00 | 20 | 1013.6 |
| 20260905201157 | 33 | 244 | 1.6 | 9.7 | 0.00 | 0.00 | 0.00 | 21 | 1013.6 |
| 20260905200928 | 33 | 329 | 3.2 | 9.7 | 0.00 | 0.00 | 0.00 | 22 | 1013.6 |
| 20260905200210 | 33 | 5 | 1.6 | 9.7 | 0.00 | 0.00 | 0.00 | 23 | 1013.7 |
| 20260905195655 | 33 | 345 | 1.6 | 4.8 | 0.00 | 0.00 | 0.00 | 24 | 1013.7 |
| 20260905195153 | 32 | 196 | 1.6 | 4.8 | 0.00 | 0.00 | 0.00 | 22 | 1013.8 |
| 20260905194653 | 32 | 90 | 1.6 | 4.8 | 0.00 | 0.00 | 0.00 | 23 | 1013.9 |
| 20260905194153 | 32 | 267 | 1.6 | 4.8 | 0.00 | 0.00 | 0.00 | 23 | 1013.9 |
| 20260905193653 | 32 | 68 | 1.6 | 9.7 | 0.00 | 0.00 | 0.00 | 24 | 1013.9 |
| 20260905193152 | 32 | 339 | 1.6 | 9.7 | 0.00 | 0.00 | 0.00 | 25 | 1014.0 |
| 20260905192653 | 31 | 117 | 1.6 | 6.4 | 0.00 | 0.00 | 0.00 | 26 | 1014.1 |
| 20260905192152 | 32 | 0 | 1.6 | 6.4 | 0.00 | 0.00 | 0.00 | 27 | 1014.1 |
| 20260905191653 | 32 | 128 | 1.6 | 6.4 | 0.00 | 0.00 | 0.00 | 26 | 1014.2 |
| 20260905191152 | 32 | 33 | 1.6 | 6.4 | 0.00 | 0.00 | 0.00 | 28 | 1014.3 |
| 20260905190651 | 31 | 24 | 1.6 | 11.3 | 0.00 | 0.00 | 0.00 | 29 | 1014.3 |
| 20260905190149 | 31 | 28 | 1.6 | 11.3 | 0.00 | 0.00 | 0.00 | 30 | 1014.4 |
| 20260905185651 | 31 | 88 | 1.6 | 3.2 | 0.00 | 0.00 | 0.00 | 32 | 1014.5 |
| 20260905185422 | 30 | 238 | 1.6 | 4.8 | 0.00 | 0.00 | 0.00 | 33 | 1014.5 |
| 20260905184704 | 30 | 259 | 1.6 | 4.8 | 0.00 | 0.00 | 0.00 | 31 | 1014.6 |
| 20260905184151 | 30 | 285 | 1.6 | 4.8 | 0.00 | 0.00 | 0.00 | 33 | 1014.6 |
| 20260905183935 | 30 | 344 | 1.6 | 4.8 | 0.00 | 0.00 | 0.00 | 34 | 1014.7 |
| 20260905183152 | 30 | 271 | 0.0 | 6.4 | 0.00 | 0.00 | 0.00 | 35 | 1014.7 |
| 20260905182653 | 29 | 339 | 1.6 | 6.4 | 0.00 | 0.00 | 0.00 | 36 | 1014.7 |
| 20260905182141 | 28 | 11 | 1.6 | 8.0 | 0.00 | 0.00 | 0.00 | 38 | 1014.8 |
| 20260905181636 | 28 | 246 | 1.6 | 6.4 | 0.00 | 0.00 | 0.00 | 37 | 1014.9 |
| 20260905181130 | 28 | 190 | 1.6 | 3.2 | 0.00 | 0.00 | 0.00 | 38 | 1014.9 |
| 20260905180620 | 28 | 259 | 0.0 | 3.2 | 0.00 | 0.00 | 0.00 | 39 | 1014.9 |
| 20260905180126 | 27 | 249 | 1.6 | 4.8 | 0.00 | 0.00 | 0.00 | 40 | 1014.9 |
| 20260905175608 | 27 | 315 | 1.6 | 6.4 | 0.00 | 0.00 | 0.00 | 41 | 1014.9 |
| 20260905175057 | 27 | 268 | 1.6 | 6.4 | 0.00 | 0.00 | 0.00 | 41 | 1014.9 |
| 20260905174551 | 27 | 89 | 1.6 | 4.8 | 0.00 | 0.00 | 0.00 | 42 | 1014.9 |
| 20260905174045 | 27 | 237 | 0.0 | 3.2 | 0.00 | 0.00 | 0.00 | 44 | 1015.0 |
| 20260905173534 | 27 | 26 | 1.6 | 4.8 | 0.00 | 0.00 | 0.00 | 45 | 1014.8 |